Time;durP1;ratioP1;P1;durP2;ratioP2;P2;SDS_P1;SDS_P2;PMS_P1;PMS_P2;Temp;Humidity;BMP_temperature;BMP_pressure;BME280_temperature;BME280_humidity;BME280_pressure;Samples;Min_cycle;Max_cycle;Signal;HPM_P1;HPM_P2
2022/07/18 00:02:08;;;;;;;5.25;2.40;;;16.30;93.80;;;;;;5109458;28;20207;-52
2022/07/18 00:04:36;;;;;;;3.90;2.03;;;16.30;93.90;;;;;;5102325;28;20227;-51
2022/07/18 00:07:04;;;;;;;4.93;1.88;;;16.20;94.20;;;;;;5109083;28;20208;-52
2022/07/18 00:09:32;;;;;;;3.30;2.00;;;16.20;94.10;;;;;;5109700;28;20249;-51
2022/07/18 00:12:04;;;;;;;2.00;1.27;;;16.10;94.20;;;;;;5109576;28;20681;-52
2022/07/18 00:14:32;;;;;;;2.35;1.50;;;16.00;94.40;;;;;;5109561;28;20220;-52
2022/07/18 00:17:01;;;;;;;3.28;1.65;;;16.00;94.50;;;;;;5109067;28;20253;-51
2022/07/18 00:19:31;;;;;;;2.90;1.73;;;16.00;94.90;;;;;;5109332;28;20232;-51
2022/07/18 00:21:59;;;;;;;1.98;1.77;;;16.00;95.30;;;;;;5109777;28;20256;-52
2022/07/18 00:24:27;;;;;;;2.90;1.70;;;15.90;95.00;;;;;;5109250;28;20777;-51
2022/07/18 00:26:55;;;;;;;2.65;1.70;;;15.80;95.30;;;;;;5109816;28;20272;-52
2022/07/18 00:29:23;;;;;;;4.13;1.70;;;15.80;95.50;;;;;;5109488;28;20203;-52
2022/07/18 00:31:51;;;;;;;3.05;1.83;;;15.70;95.90;;;;;;5109257;28;20256;-52
2022/07/18 00:34:19;;;;;;;2.70;1.80;;;15.70;96.00;;;;;;5108982;28;20230;-52
2022/07/18 00:36:49;;;;;;;1.50;1.40;;;15.60;96.60;;;;;;5108801;28;20634;-52
2022/07/18 00:39:17;;;;;;;1.77;1.40;;;15.60;96.30;;;;;;5109497;28;20691;-52
2022/07/18 00:41:48;;;;;;;2.87;1.63;;;15.60;96.70;;;;;;5106647;28;20272;-52
2022/07/18 00:44:19;;;;;;;4.20;1.60;;;15.50;96.90;;;;;;5111875;28;20288;-51
2022/07/18 00:46:49;;;;;;;3.20;1.60;;;15.50;96.90;;;;;;5117274;28;20204;-51
2022/07/18 00:49:17;;;;;;;2.05;1.50;;;15.50;97.10;;;;;;5117924;28;20196;-52
2022/07/18 00:51:45;;;;;;;4.70;1.63;;;15.50;96.90;;;;;;5108927;28;20195;-52
2022/07/18 00:54:16;;;;;;;3.13;1.60;;;15.50;96.20;;;;;;5109162;28;20871;-52
2022/07/18 00:56:45;;;;;;;2.53;1.70;;;15.50;95.90;;;;;;5109230;28;20344;-52
2022/07/18 00:59:14;;;;;;;2.13;1.77;;;15.50;96.00;;;;;;5108943;28;20231;-51
2022/07/18 01:01:44;;;;;;;3.40;1.63;;;15.50;96.00;;;;;;5109312;28;20272;-52
2022/07/18 01:04:17;;;;;;;1.83;1.50;;;15.40;96.00;;;;;;5109393;28;20960;-52
2022/07/18 01:06:45;;;;;;;2.55;1.60;;;15.40;95.90;;;;;;5111911;28;20843;-52
2022/07/18 01:09:15;;;;;;;3.22;1.80;;;15.40;95.90;;;;;;5113059;28;20648;-52
2022/07/18 01:11:45;;;;;;;2.70;1.90;;;15.40;95.90;;;;;;5112948;28;20292;-52
2022/07/18 01:14:14;;;;;;;2.92;1.85;;;15.30;95.90;;;;;;5098517;28;20235;-52
2022/07/18 01:16:42;;;;;;;2.27;1.40;;;15.40;95.90;;;;;;5112917;28;20207;-52
2022/07/18 01:19:11;;;;;;;2.70;1.67;;;15.30;95.70;;;;;;5112558;28;20276;-52
2022/07/18 01:21:41;;;;;;;4.05;1.88;;;15.30;95.60;;;;;;5112604;28;20231;-52
2022/07/18 01:24:09;;;;;;;3.97;1.63;;;15.30;95.70;;;;;;5111758;28;20265;-52
2022/07/18 01:26:37;;;;;;;3.37;1.70;;;15.30;95.90;;;;;;5112518;28;20629;-52
2022/07/18 01:29:07;;;;;;;2.13;1.70;;;15.20;96.50;;;;;;5112106;28;20203;-52
2022/07/18 01:31:35;;;;;;;4.83;2.00;;;15.20;96.70;;;;;;5112759;28;20207;-52
2022/07/18 01:34:03;;;;;;;1.97;1.67;;;15.10;97.10;;;;;;5111452;28;20212;-52
2022/07/18 01:36:31;;;;;;;4.23;1.90;;;15.00;97.30;;;;;;5111511;28;20233;-52
2022/07/18 01:39:01;;;;;;;3.67;1.50;;;15.00;97.40;;;;;;5112364;28;20253;-51
2022/07/18 01:41:29;;;;;;;3.13;1.40;;;15.00;97.00;;;;;;5098340;28;20252;-51
2022/07/18 01:43:57;;;;;;;2.60;1.48;;;15.00;96.80;;;;;;5112138;28;20257;-52
2022/07/18 01:46:25;;;;;;;2.60;1.70;;;15.00;96.60;;;;;;5111971;28;20672;-52
2022/07/18 01:48:53;;;;;;;4.07;1.60;;;14.90;96.60;;;;;;5111914;28;20261;-51
2022/07/18 01:51:22;;;;;;;4.83;2.00;;;14.90;96.70;;;;;;5111919;28;20211;-52
2022/07/18 01:53:58;;;;;;;2.90;1.63;;;14.90;96.70;;;;;;5111664;28;20729;-51
2022/07/18 01:56:27;;;;;;;2.37;1.50;;;14.90;96.70;;;;;;5111816;28;20646;-52
2022/07/18 01:58:56;;;;;;;2.23;1.60;;;14.90;96.60;;;;;;5111462;28;20311;-52
2022/07/18 02:01:24;;;;;;;3.37;1.43;;;14.90;96.60;;;;;;5111992;28;20203;-51
2022/07/18 02:03:52;;;;;;;4.00;1.70;;;14.90;96.40;;;;;;5112183;28;20659;-52
2022/07/18 02:06:20;;;;;;;1.87;1.63;;;14.90;96.20;;;;;;5111747;28;20259;-52
2022/07/18 02:08:48;;;;;;;1.80;1.60;;;14.90;96.10;;;;;;5111472;28;20207;-52
2022/07/18 02:11:16;;;;;;;3.07;1.77;;;15.00;96.30;;;;;;5111607;28;20276;-51
2022/07/18 02:13:46;;;;;;;2.60;1.73;;;14.90;96.30;;;;;;5111768;28;20261;-51
2022/07/18 02:16:14;;;;;;;2.23;1.40;;;14.90;96.40;;;;;;5110932;28;20250;-52
2022/07/18 02:18:43;;;;;;;2.63;1.60;;;14.90;96.60;;;;;;5111074;28;20220;-51
2022/07/18 02:21:13;;;;;;;4.50;1.80;;;14.80;97.10;;;;;;5111650;28;20212;-50
2022/07/18 02:23:42;;;;;;;3.10;1.87;;;14.80;96.70;;;;;;5111313;28;20813;-51
2022/07/18 02:26:10;;;;;;;4.23;1.80;;;14.70;96.70;;;;;;5111643;28;20241;-52
2022/07/18 02:28:39;;;;;;;3.10;1.60;;;14.70;96.80;;;;;;5111063;28;20267;-52
2022/07/18 02:31:08;;;;;;;4.17;1.93;;;14.70;96.80;;;;;;5111091;28;20256;-51
2022/07/18 02:33:36;;;;;;;3.05;1.77;;;14.60;96.80;;;;;;5111220;28;20215;-50
2022/07/18 02:36:05;;;;;;;3.20;1.73;;;14.60;96.80;;;;;;5110300;28;20661;-52
2022/07/18 02:38:33;;;;;;;3.27;1.63;;;14.60;97.00;;;;;;5111042;28;20203;-52
2022/07/18 02:41:01;;;;;;;3.40;1.80;;;14.60;96.90;;;;;;5110981;28;20260;-52
2022/07/18 02:43:29;;;;;;;2.73;1.40;;;14.50;97.00;;;;;;5111273;28;20618;-52
2022/07/18 02:45:57;;;;;;;3.23;1.50;;;14.60;96.90;;;;;;5110441;28;20272;-52
2022/07/18 02:48:27;;;;;;;2.47;1.63;;;14.50;97.00;;;;;;5111178;28;20216;-52
2022/07/18 02:50:55;;;;;;;4.57;1.77;;;14.50;96.90;;;;;;5111165;28;20253;-52
2022/07/18 02:53:23;;;;;;;1.93;1.60;;;14.50;97.40;;;;;;5110456;28;20276;-52
2022/07/18 02:55:52;;;;;;;7.37;1.83;;;14.40;97.30;;;;;;5111123;28;20281;-52
2022/07/18 02:58:20;;;;;;;1.57;1.47;;;14.40;97.30;;;;;;5110880;28;20200;-51
2022/07/18 03:00:48;;;;;;;4.40;2.13;;;14.30;97.50;;;;;;5110219;28;20227;-51
2022/07/18 03:03:16;;;;;;;2.80;1.67;;;14.30;97.40;;;;;;5111151;28;20200;-52
2022/07/18 03:05:46;;;;;;;4.20;1.87;;;14.30;97.60;;;;;;5110639;28;20219;-52
2022/07/18 03:08:14;;;;;;;2.90;1.90;;;14.30;97.70;;;;;;5110531;28;20607;-51
2022/07/18 03:10:42;;;;;;;1.97;1.60;;;14.30;97.90;;;;;;5110830;28;20207;-52
2022/07/18 03:13:12;;;;;;;1.47;1.33;;;14.20;97.90;;;;;;5110277;28;20208;-52
2022/07/18 03:15:40;;;;;;;2.27;1.70;;;14.20;97.90;;;;;;5109898;28;20226;-51
2022/07/18 03:18:08;;;;;;;1.80;1.70;;;14.20;98.10;;;;;;5110908;28;20212;-51
2022/07/18 03:20:36;;;;;;;2.33;1.70;;;14.20;98.20;;;;;;5110196;28;20227;-52
2022/07/18 03:23:07;;;;;;;2.73;1.60;;;14.10;98.30;;;;;;5110241;28;20212;-50
2022/07/18 03:25:36;;;;;;;5.00;2.20;;;14.10;98.40;;;;;;5110164;28;20219;-52
2022/07/18 03:28:04;;;;;;;2.00;1.80;;;14.00;98.50;;;;;;5101838;28;20265;-51
2022/07/18 03:30:32;;;;;;;3.53;1.83;;;14.00;98.50;;;;;;5110396;28;20200;-52
2022/07/18 03:33:00;;;;;;;3.03;1.93;;;14.10;98.60;;;;;;5109828;28;20672;-52
2022/07/18 03:35:33;;;;;;;3.20;2.20;;;14.00;98.50;;;;;;5109650;28;20242;-52
2022/07/18 03:38:01;;;;;;;2.83;1.90;;;14.00;98.70;;;;;;5109937;28;20550;-51
2022/07/18 03:40:31;;;;;;;4.00;1.90;;;14.00;98.70;;;;;;5109664;28;20231;-52
2022/07/18 03:42:59;;;;;;;3.60;1.87;;;14.00;98.70;;;;;;5110517;28;20204;-51
2022/07/18 03:45:27;;;;;;;2.77;1.90;;;14.00;98.90;;;;;;5109863;28;20284;-51
2022/07/18 03:47:56;;;;;;;4.03;1.70;;;14.00;98.90;;;;;;5095682;28;20661;-52
2022/07/18 03:50:24;;;;;;;3.20;1.80;;;14.00;98.90;;;;;;5109851;28;20721;-51
2022/07/18 03:52:52;;;;;;;3.10;2.03;;;14.00;99.10;;;;;;5109275;28;20264;-52
2022/07/18 03:55:20;;;;;;;3.07;2.00;;;14.00;99.10;;;;;;5110451;28;20227;-51
2022/07/18 03:57:50;;;;;;;1.80;1.53;;;14.10;99.10;;;;;;5110298;28;20207;-52
2022/07/18 04:00:18;;;;;;;1.93;1.53;;;14.10;99.00;;;;;;5095965;28;20223;-52
2022/07/18 04:02:48;;;;;;;3.23;1.97;;;14.10;99.20;;;;;;5110151;28;20207;-51
2022/07/18 04:05:17;;;;;;;4.73;1.97;;;14.10;99.20;;;;;;5110034;28;20216;-51
2022/07/18 04:07:45;;;;;;;3.53;2.10;;;14.10;99.30;;;;;;5109800;28;20207;-51
2022/07/18 04:10:14;;;;;;;2.13;1.77;;;14.10;99.30;;;;;;5109633;28;20561;-52
2022/07/18 04:12:54;;;;;;;2.83;1.83;;;14.10;99.40;;;;;;5110160;28;20626;-51
2022/07/18 04:15:24;;;;;;;3.17;1.67;;;14.10;99.90;;;;;;5117976;28;20223;-50
2022/07/18 04:17:53;;;;;;;2.80;2.27;;;14.20;99.60;;;;;;5118590;28;20211;-51
2022/07/18 04:20:22;;;;;;;2.50;1.90;;;14.30;99.50;;;;;;5113115;28;20292;-52
2022/07/18 04:22:51;;;;;;;2.30;2.03;;;14.80;99.70;;;;;;5109283;28;20661;-52
2022/07/18 04:25:21;;;;;;;5.22;3.70;;;15.80;98.90;;;;;;5109478;28;20363;-52
2022/07/18 04:27:50;;;;;;;3.90;1.95;;;16.60;97.90;;;;;;5109631;28;20672;-52
2022/07/18 04:30:22;;;;;;;4.07;1.80;;;17.20;97.10;;;;;;5109163;28;20276;-52
2022/07/18 04:32:50;;;;;;;2.80;1.50;;;17.70;96.40;;;;;;5109459;28;20204;-51
2022/07/18 04:35:21;;;;;;;4.70;1.80;;;18.00;95.70;;;;;;5109360;28;20265;-52
2022/07/18 04:37:49;;;;;;;2.88;1.80;;;18.30;95.50;;;;;;5109330;28;20196;-52
2022/07/18 04:40:18;;;;;;;2.90;1.40;;;18.40;94.90;;;;;;5110182;28;20219;-52
2022/07/18 04:42:46;;;;;;;2.33;1.50;;;18.60;94.60;;;;;;5113178;28;20204;-52
2022/07/18 04:45:15;;;;;;;4.88;1.80;;;18.90;94.40;;;;;;5113384;28;20232;-52
2022/07/18 04:47:44;;;;;;;3.40;1.58;;;19.30;94.20;;;;;;5112881;28;20203;-52
2022/07/18 04:50:12;;;;;;;4.15;1.80;;;19.70;93.60;;;;;;5113392;28;20207;-51
2022/07/18 04:52:43;;;;;;;2.53;1.52;;;20.10;93.10;;;;;;5112992;28;20257;-52
2022/07/18 04:55:16;;;;;;;2.72;1.52;;;20.40;92.70;;;;;;5113027;28;20280;-52
2022/07/18 04:57:44;;;;;;;2.97;2.00;;;20.80;92.80;;;;;;5113377;28;20721;-52
2022/07/18 05:00:15;;;;;;;3.95;1.80;;;21.20;92.20;;;;;;5113408;28;20223;-52
2022/07/18 05:02:46;;;;;;;1.80;1.52;;;21.20;91.40;;;;;;5113231;28;20211;-52
2022/07/18 05:05:16;;;;;;;4.00;1.70;;;21.00;91.50;;;;;;5112888;28;20272;-52
2022/07/18 05:07:46;;;;;;;3.47;2.00;;;21.00;92.00;;;;;;5112261;28;20817;-52
2022/07/18 05:10:16;;;;;;;3.75;1.70;;;21.40;91.90;;;;;;5111990;28;20752;-52
2022/07/18 05:12:46;;;;;;;2.40;1.58;;;22.00;91.10;;;;;;5110346;28;20215;-52
2022/07/18 05:15:16;;;;;;;3.40;1.77;;;22.10;90.70;;;;;;5110939;28;20223;-52
2022/07/18 05:17:46;;;;;;;4.10;1.70;;;22.50;90.70;;;;;;5111209;28;20247;-53
2022/07/18 05:20:15;;;;;;;3.53;1.70;;;22.60;90.90;;;;;;5110495;28;20215;-51
2022/07/18 05:22:43;;;;;;;7.68;1.92;;;22.80;90.70;;;;;;5110724;28;20265;-52
2022/07/18 05:25:12;;;;;;;2.70;2.10;;;23.30;90.90;;;;;;5111253;28;20235;-52
2022/07/18 05:27:41;;;;;;;8.75;2.13;;;23.70;90.80;;;;;;5112188;28;20199;-53
2022/07/18 05:30:11;;;;;;;7.47;2.30;;;24.00;90.90;;;;;;5112257;28;20207;-53
2022/07/18 05:32:40;;;;;;;4.00;1.98;;;24.40;91.00;;;;;;5112935;28;20646;-53
2022/07/18 05:35:11;;;;;;;4.18;1.80;;;24.70;90.80;;;;;;5111836;28;20219;-52
2022/07/18 05:37:40;;;;;;;2.95;2.10;;;24.70;90.10;;;;;;5101053;28;20246;-52
2022/07/18 05:40:10;;;;;;;4.18;2.20;;;24.80;90.30;;;;;;5111576;28;20218;-52
2022/07/18 05:42:39;;;;;;;4.57;1.88;;;25.00;89.60;;;;;;5111801;28;20249;-52
2022/07/18 05:45:24;;;;;;;8.77;2.03;;;25.10;89.30;;;;;;5107826;28;20530;-52
2022/07/18 05:47:52;;;;;;;3.50;2.10;;;25.40;88.10;;;;;;5108610;28;20211;-52
2022/07/18 05:50:22;;;;;;;5.65;1.95;;;25.60;85.70;;;;;;5111340;28;20238;-51
2022/07/18 05:52:50;;;;;;;3.40;1.67;;;25.50;85.20;;;;;;5110873;28;20195;-52
2022/07/18 05:55:18;;;;;;;6.78;2.20;;;25.50;87.60;;;;;;5104632;28;20219;-52
2022/07/18 05:57:47;;;;;;;4.18;2.00;;;25.60;87.20;;;;;;5108980;28;20360;-52
2022/07/18 06:00:16;;;;;;;5.38;1.75;;;25.80;87.10;;;;;;5111287;28;20253;-52
2022/07/18 06:02:44;;;;;;;4.38;2.00;;;26.10;85.50;;;;;;5110765;28;20245;-52
2022/07/18 06:05:12;;;;;;;2.90;1.98;;;26.40;84.60;;;;;;5108333;28;20247;-52
2022/07/18 06:07:53;;;;;;;5.38;2.13;;;26.40;83.90;;;;;;5111173;28;20192;-52
2022/07/18 06:10:22;;;;;;;3.00;1.70;;;26.60;82.70;;;;;;5110951;28;20200;-52
2022/07/18 06:12:51;;;;;;;2.80;1.50;;;26.90;80.40;;;;;;5111290;28;20200;-52
2022/07/18 06:15:19;;;;;;;2.10;1.70;;;27.10;79.00;;;;;;5108299;28;20575;-52
2022/07/18 06:17:47;;;;;;;3.13;1.60;;;27.50;77.60;;;;;;5103210;28;20608;-52
2022/07/18 06:20:16;;;;;;;4.55;1.70;;;27.60;76.50;;;;;;5109974;28;20809;-52
2022/07/18 06:22:44;;;;;;;3.97;1.80;;;27.80;76.50;;;;;;5109308;28;20231;-53
2022/07/18 06:25:13;;;;;;;2.35;1.58;;;27.90;75.00;;;;;;5106547;28;20227;-53
2022/07/18 06:27:41;;;;;;;3.78;1.70;;;28.00;75.70;;;;;;5110449;28;20203;-53
2022/07/18 06:30:10;;;;;;;2.28;1.52;;;28.10;74.50;;;;;;5110033;28;20248;-53
2022/07/18 06:32:38;;;;;;;3.63;1.55;;;28.20;76.00;;;;;;5106270;28;20199;-53
2022/07/18 06:35:07;;;;;;;3.50;1.90;;;28.30;75.70;;;;;;5108053;28;20231;-53
2022/07/18 06:37:35;;;;;;;1.83;1.58;;;28.20;73.70;;;;;;5109152;28;20672;-52
2022/07/18 06:40:04;;;;;;;3.22;2.20;;;28.50;74.60;;;;;;5109773;28;20703;-53
2022/07/18 06:42:34;;;;;;;2.67;1.52;;;28.80;73.10;;;;;;5109840;28;20227;-53
2022/07/18 06:45:03;;;;;;;3.08;1.63;;;28.70;72.30;;;;;;5109278;28;20227;-53
2022/07/18 06:50:55;;;;;;;2.22;1.55;;;28.90;71.10;;;;;;5100903;28;20275;-53
2022/07/18 06:53:23;;;;;;;4.00;1.55;;;28.90;71.30;;;;;;5109313;28;20264;-53
2022/07/18 06:55:51;;;;;;;2.97;1.95;;;28.60;68.40;;;;;;5104653;28;20228;-52
2022/07/18 06:58:20;;;;;;;2.17;1.60;;;28.10;68.70;;;;;;5102137;28;20199;-52
2022/07/18 07:00:48;;;;;;;5.07;1.75;;;27.90;71.60;;;;;;5107481;28;20744;-52
2022/07/18 07:03:17;;;;;;;2.72;1.60;;;28.20;72.70;;;;;;5097583;28;20261;-50
2022/07/18 07:05:45;;;;;;;2.33;1.48;;;28.60;72.70;;;;;;5108107;28;20307;-50
2022/07/18 07:08:14;;;;;;;5.18;1.63;;;29.00;72.30;;;;;;5105484;27;20204;-50
2022/07/18 07:10:42;;;;;;;2.85;1.45;;;29.10;69.10;;;;;;5109290;28;20233;-51
2022/07/18 07:13:10;;;;;;;3.15;1.75;;;29.20;68.40;;;;;;5109112;28;20204;-50
2022/07/18 07:15:46;;;;;;;2.88;1.60;;;29.40;66.90;;;;;;5108259;28;20304;-50
2022/07/18 07:18:14;;;;;;;2.67;1.45;;;29.50;66.60;;;;;;5109085;28;20260;-53
2022/07/18 07:20:42;;;;;;;3.70;1.70;;;29.60;64.80;;;;;;5106908;28;20219;-52
2022/07/18 07:23:10;;;;;;;4.28;1.98;;;29.70;65.30;;;;;;5108369;28;20632;-52
2022/07/18 07:25:39;;;;;;;3.80;1.60;;;29.90;64.10;;;;;;5107241;28;20333;-53
2022/07/18 07:28:07;;;;;;;3.40;1.85;;;29.90;64.60;;;;;;5108003;28;20204;-53
2022/07/18 07:30:35;;;;;;;2.28;1.52;;;29.90;66.10;;;;;;5108744;28;20272;-52
2022/07/18 07:33:08;;;;;;;5.28;1.80;;;29.90;67.30;;;;;;5108505;28;20712;-53
2022/07/18 07:35:36;;;;;;;4.40;1.83;;;29.80;62.10;;;;;;5105152;28;20280;-52
2022/07/18 07:38:04;;;;;;;4.85;1.63;;;29.70;63.10;;;;;;5108748;28;20208;-52
2022/07/18 07:40:32;;;;;;;2.38;1.70;;;30.00;64.00;;;;;;5106954;28;20672;-53
2022/07/18 07:43:08;;;;;;;3.40;1.70;;;30.20;62.30;;;;;;5109061;28;20775;-52
2022/07/18 07:45:36;;;;;;;3.30;1.48;;;30.20;60.70;;;;;;5108980;28;20223;-49
2022/07/18 07:48:07;;;;;;;2.65;1.60;;;29.90;62.30;;;;;;5107401;28;20211;-52
2022/07/18 07:50:35;;;;;;;4.93;1.40;;;29.80;59.60;;;;;;5099716;28;20614;-52
2022/07/18 07:53:03;;;;;;;4.38;1.60;;;29.90;61.10;;;;;;5094739;28;20196;-52
2022/07/18 07:55:32;;;;;;;3.55;1.80;;;30.00;60.30;;;;;;5094855;28;20223;-52
2022/07/18 07:58:00;;;;;;;4.07;1.45;;;30.00;60.30;;;;;;5094121;28;20216;-53
2022/07/18 08:00:28;;;;;;;2.53;1.80;;;30.20;59.50;;;;;;5094574;28;20257;-53
2022/07/18 08:02:59;;;;;;;4.85;1.52;;;30.20;59.20;;;;;;5094422;28;20281;-53
2022/07/18 08:05:30;;;;;;;4.85;1.75;;;30.30;62.60;;;;;;5102092;28;20269;-53
2022/07/18 08:08:00;;;;;;;4.78;1.58;;;30.30;59.50;;;;;;5108852;28;20683;-52
2022/07/18 08:10:28;;;;;;;3.28;1.50;;;30.60;61.30;;;;;;5109369;28;20257;-52
2022/07/18 08:12:57;;;;;;;3.90;1.75;;;30.50;62.00;;;;;;5108628;28;20203;-53
2022/07/18 08:15:25;;;;;;;3.65;2.10;;;30.10;61.20;;;;;;5109803;28;20284;-53
2022/07/18 08:17:54;;;;;;;3.20;1.70;;;30.00;61.80;;;;;;5113096;28;20268;-53
2022/07/18 08:20:23;;;;;;;1.73;1.48;;;29.70;60.90;;;;;;5112401;28;20207;-53
2022/07/18 08:22:58;;;;;;;2.65;1.80;;;29.50;61.00;;;;;;5112787;28;20223;-53
2022/07/18 08:25:27;;;;;;;3.78;1.90;;;29.50;61.40;;;;;;5112429;28;20223;-53
2022/07/18 08:27:56;;;;;;;5.13;2.08;;;29.40;62.20;;;;;;5112809;28;20204;-52
2022/07/18 08:30:24;;;;;;;5.93;1.70;;;29.40;63.10;;;;;;5111154;28;20211;-53
2022/07/18 08:32:52;;;;;;;2.50;1.75;;;29.40;62.80;;;;;;5113122;28;20249;-53
2022/07/18 08:35:21;;;;;;;3.97;1.50;;;29.20;61.80;;;;;;5108157;28;20225;-53
2022/07/18 08:37:50;;;;;;;3.70;1.58;;;29.10;61.80;;;;;;5112120;28;20209;-52
2022/07/18 08:40:20;;;;;;;2.85;1.55;;;29.00;61.90;;;;;;5112682;28;20207;-53
2022/07/18 08:42:51;;;;;;;3.60;1.70;;;29.10;60.30;;;;;;5112158;28;20235;-52
2022/07/18 08:45:42;;;;;;;2.45;1.70;;;29.10;60.50;;;;;;5112503;28;20231;-52
2022/07/18 08:48:10;;;;;;;2.30;1.73;;;29.20;62.20;;;;;;5112381;28;20212;-52
2022/07/18 08:50:38;;;;;;;4.35;1.83;;;29.30;61.30;;;;;;5111318;28;20284;-52
2022/07/18 08:53:06;;;;;;;3.42;1.50;;;29.30;61.10;;;;;;5111499;28;20200;-51
2022/07/18 08:55:36;;;;;;;1.80;1.50;;;29.30;60.70;;;;;;5111908;28;20227;-51
2022/07/18 08:58:04;;;;;;;2.22;1.55;;;29.30;60.20;;;;;;5112639;28;20276;-52
2022/07/18 09:00:52;;;;;;;3.60;1.67;;;29.20;59.20;;;;;;5110935;28;20319;-53
2022/07/18 09:03:21;;;;;;;4.45;1.85;;;29.10;61.80;;;;;;5111167;28;20223;-52
2022/07/18 09:06:04;;;;;;;3.88;1.98;;;29.10;59.00;;;;;;5112185;28;20243;-53
2022/07/18 09:08:32;;;;;;;3.78;1.50;;;29.00;59.10;;;;;;5107851;28;20208;-52
2022/07/18 09:11:04;;;;;;;2.80;1.70;;;29.20;59.80;;;;;;5111628;28;20211;-52
2022/07/18 09:13:37;;;;;;;4.90;2.00;;;29.20;58.30;;;;;;5107213;28;20204;-52
2022/07/18 09:16:08;;;;;;;2.72;1.58;;;29.10;59.60;;;;;;5108141;28;20238;-53
2022/07/18 09:18:38;;;;;;;2.72;1.50;;;29.10;60.00;;;;;;5112297;28;20203;-52
2022/07/18 09:21:09;;;;;;;2.75;1.58;;;29.30;61.60;;;;;;5104765;28;20208;-53
2022/07/18 09:23:41;;;;;;;3.22;1.60;;;29.40;61.60;;;;;;5109172;28;20216;-52
2022/07/18 09:26:11;;;;;;;4.47;1.70;;;29.40;59.90;;;;;;5099757;28;20864;-52
2022/07/18 09:28:50;;;;;;;1.70;1.40;;;29.40;61.30;;;;;;5104303;28;20215;-53
2022/07/18 09:31:38;;;;;;;2.17;1.50;;;29.50;61.50;;;;;;5110043;28;20231;-52
2022/07/18 09:34:06;;;;;;;5.25;1.70;;;29.40;59.80;;;;;;5108818;28;20622;-53
2022/07/18 09:36:36;;;;;;;4.47;1.77;;;29.50;60.40;;;;;;5111746;28;20298;-52
2022/07/18 09:39:20;;;;;;;3.63;1.75;;;29.50;59.30;;;;;;5111054;28;20802;-53
2022/07/18 09:41:49;;;;;;;4.95;1.75;;;29.60;59.70;;;;;;5106271;28;20206;-53
2022/07/18 09:44:18;;;;;;;2.78;1.70;;;29.60;58.00;;;;;;5110817;28;20836;-53
2022/07/18 09:47:02;;;;;;;2.92;1.70;;;29.40;60.10;;;;;;5107792;28;20200;-52
2022/07/18 09:49:31;;;;;;;7.03;2.20;;;29.50;59.30;;;;;;5106865;28;20235;-52
2022/07/18 09:52:04;;;;;;;3.40;1.55;;;29.60;60.40;;;;;;5110384;28;20698;-52
2022/07/18 09:54:39;;;;;;;3.15;1.70;;;29.70;61.40;;;;;;5110389;28;20216;-53
2022/07/18 09:57:09;;;;;;;3.45;1.63;;;29.80;59.40;;;;;;5110844;28;20696;-52
2022/07/18 09:59:38;;;;;;;4.20;1.58;;;29.80;60.00;;;;;;5110702;28;20203;-53
2022/07/18 10:02:13;;;;;;;3.58;1.70;;;29.80;59.80;;;;;;5111790;28;20234;-51
2022/07/18 10:04:41;;;;;;;2.95;1.73;;;29.80;59.90;;;;;;5109054;28;20254;-53
2022/07/18 10:07:11;;;;;;;3.45;1.88;;;29.90;60.40;;;;;;5110286;28;20215;-52
2022/07/18 10:09:39;;;;;;;3.30;1.60;;;29.90;59.80;;;;;;5110595;28;20253;-52
2022/07/18 10:12:09;;;;;;;3.88;1.60;;;29.70;60.50;;;;;;5110451;28;20703;-53
2022/07/18 10:14:39;;;;;;;3.28;1.48;;;29.80;59.70;;;;;;5109921;28;20629;-52
2022/07/18 10:17:07;;;;;;;4.20;1.60;;;29.80;59.50;;;;;;5111802;28;20256;-53
2022/07/18 10:19:36;;;;;;;4.25;1.95;;;29.80;61.50;;;;;;5110760;28;20257;-53
2022/07/18 10:22:05;;;;;;;3.05;1.65;;;29.90;61.20;;;;;;5107474;28;20264;-53
2022/07/18 10:24:34;;;;;;;2.65;1.63;;;29.80;59.20;;;;;;5109696;28;20577;-51
2022/07/18 10:27:18;;;;;;;3.92;1.60;;;29.90;60.70;;;;;;5110576;28;20203;-52
2022/07/18 10:30:09;;;;;;;2.72;1.60;;;30.10;59.60;;;;;;5109311;28;20200;-52
2022/07/18 10:32:37;;;;;;;3.88;1.75;;;30.10;59.50;;;;;;5107373;28;20273;-52
2022/07/18 10:35:06;;;;;;;4.05;1.52;;;30.10;59.30;;;;;;5110899;28;20272;-53
2022/07/18 10:37:35;;;;;;;3.92;1.85;;;30.00;58.90;;;;;;5109200;28;20203;-51
2022/07/18 10:40:21;;;;;;;3.60;1.50;;;30.10;61.20;;;;;;5106515;28;20203;-53
2022/07/18 10:43:33;;;;;;;2.95;1.60;;;30.10;59.70;;;;;;5108319;28;20225;-53
2022/07/18 10:46:04;;;;;;;2.30;1.48;;;30.10;57.70;;;;;;5109273;28;20228;-52
2022/07/18 10:48:58;;;;;;;2.42;1.42;;;30.30;59.50;;;;;;5112026;28;20635;-52
2022/07/18 10:51:34;;;;;;;4.32;2.00;;;30.40;58.40;;;;;;5109267;28;20203;-50
2022/07/18 10:54:20;;;;;;;3.35;1.70;;;30.40;58.70;;;;;;5109445;28;20208;-52
2022/07/18 10:57:11;;;;;;;2.40;1.60;;;30.20;57.30;;;;;;5110441;28;20221;-53
2022/07/18 11:00:01;;;;;;;3.95;1.63;;;30.00;57.40;;;;;;5105845;28;20612;-52
2022/07/18 11:02:34;;;;;;;2.58;1.80;;;30.00;58.60;;;;;;5109809;28;20208;-53
2022/07/18 11:05:03;;;;;;;4.10;1.80;;;30.00;58.60;;;;;;5109551;28;20308;-52
2022/07/18 11:07:31;;;;;;;1.50;1.35;;;29.80;57.90;;;;;;5109580;28;20264;-52
2022/07/18 11:09:59;;;;;;;3.58;1.70;;;29.70;56.10;;;;;;5109201;28;20245;-52
2022/07/18 11:12:29;;;;;;;2.15;1.73;;;29.70;58.00;;;;;;5110188;28;20263;-53
2022/07/18 11:15:11;;;;;;;3.90;1.88;;;29.70;56.80;;;;;;5108493;28;20227;-52
2022/07/18 11:18:03;;;;;;;2.47;1.58;;;29.70;57.90;;;;;;5110332;28;20207;-52
2022/07/18 11:20:40;;;;;;;2.70;1.60;;;29.80;58.90;;;;;;5110090;28;20249;-52
2022/07/18 11:23:18;;;;;;;3.53;1.45;;;29.90;58.00;;;;;;5109070;28;20616;-52
2022/07/18 11:25:47;;;;;;;2.38;1.60;;;30.00;58.80;;;;;;5111395;28;20609;-52
2022/07/18 11:28:27;;;;;;;3.72;1.70;;;30.10;59.10;;;;;;5110073;28;20733;-53
2022/07/18 11:31:05;;;;;;;2.33;1.73;;;30.10;58.90;;;;;;5106517;28;20245;-52
2022/07/18 11:33:35;;;;;;;2.75;1.55;;;30.30;60.90;;;;;;5108432;28;20728;-52
2022/07/18 11:36:05;;;;;;;2.92;1.85;;;30.40;59.70;;;;;;5105568;28;20230;-53
2022/07/18 11:38:34;;;;;;;2.65;1.73;;;30.40;58.90;;;;;;5106441;28;20195;-53
2022/07/18 11:41:04;;;;;;;2.33;1.63;;;30.30;57.40;;;;;;5108095;28;20203;-52
2022/07/18 11:43:32;;;;;;;6.32;1.70;;;30.10;57.70;;;;;;5109330;28;20237;-53
2022/07/18 11:46:03;;;;;;;3.72;1.75;;;30.10;57.30;;;;;;5107192;28;20280;-53
2022/07/18 11:48:32;;;;;;;2.58;1.83;;;30.00;57.90;;;;;;5105274;28;20645;-53
2022/07/18 11:51:00;;;;;;;3.85;1.70;;;30.10;59.60;;;;;;5108962;28;20268;-52
2022/07/18 11:53:29;;;;;;;2.30;1.50;;;30.10;57.10;;;;;;5108767;28;20226;-52
2022/07/18 11:55:57;;;;;;;4.65;1.95;;;30.20;57.30;;;;;;5109160;28;20634;-52
2022/07/18 11:58:25;;;;;;;1.58;1.48;;;30.20;59.20;;;;;;5103668;28;20204;-53
2022/07/18 12:01:00;;;;;;;2.55;1.80;;;30.20;58.40;;;;;;5106720;28;20199;-52
2022/07/18 12:03:30;;;;;;;2.10;1.70;;;30.10;57.10;;;;;;5107983;28;20284;-52
2022/07/18 12:05:58;;;;;;;2.63;1.75;;;30.10;58.50;;;;;;5108313;28;20223;-52
2022/07/18 12:08:34;;;;;;;3.55;1.75;;;30.20;59.10;;;;;;5108296;28;20199;-52
2022/07/18 12:11:15;;;;;;;2.05;1.80;;;30.20;57.80;;;;;;5104660;28;20196;-52
2022/07/18 12:13:48;;;;;;;1.95;1.50;;;30.20;57.80;;;;;;5108106;28;20203;-52
2022/07/18 12:16:31;;;;;;;2.50;1.75;;;30.10;57.50;;;;;;5108177;28;20988;-51
2022/07/18 12:19:05;;;;;;;1.80;1.70;;;30.10;57.80;;;;;;5108576;28;20203;-52
2022/07/18 12:21:46;;;;;;;3.10;1.85;;;30.20;58.80;;;;;;5104542;28;20838;-51
2022/07/18 12:24:29;;;;;;;3.35;1.50;;;30.20;57.30;;;;;;5107614;28;20703;-51
2022/07/18 12:27:16;;;;;;;3.80;2.10;;;30.20;57.20;;;;;;5105861;28;20294;-52
2022/07/18 12:30:03;;;;;;;3.97;1.80;;;30.30;56.80;;;;;;5106724;28;20199;-52
2022/07/18 12:32:39;;;;;;;6.05;1.90;;;30.30;57.70;;;;;;5104939;28;20211;-53
2022/07/18 12:35:10;;;;;;;3.33;1.88;;;30.30;56.30;;;;;;5105613;28;20374;-52
2022/07/18 12:37:39;;;;;;;3.20;1.70;;;30.20;56.90;;;;;;5106771;28;20203;-52
2022/07/18 12:40:13;;;;;;;2.83;1.70;;;30.30;58.40;;;;;;5105546;28;20260;-52
2022/07/18 12:43:05;;;;;;;2.15;1.70;;;30.40;56.50;;;;;;5107264;28;20706;-51
2022/07/18 12:45:36;;;;;;;3.38;1.90;;;30.40;56.30;;;;;;5107924;28;20231;-51
2022/07/18 12:48:06;;;;;;;3.55;2.28;;;30.40;55.90;;;;;;5108723;28;20207;-52
2022/07/18 12:50:37;;;;;;;3.67;1.90;;;30.40;56.60;;;;;;5107818;28;20298;-52
2022/07/18 12:53:05;;;;;;;3.05;1.85;;;30.40;55.70;;;;;;5107563;28;20253;-52
2022/07/18 12:55:34;;;;;;;4.53;1.90;;;30.40;56.00;;;;;;5108972;28;20269;-52
2022/07/18 12:58:02;;;;;;;2.10;1.58;;;30.40;57.00;;;;;;5107873;28;20677;-52
2022/07/18 13:00:31;;;;;;;4.32;2.20;;;30.40;57.10;;;;;;5107904;28;20204;-52
2022/07/18 13:03:00;;;;;;;2.65;1.85;;;30.50;58.00;;;;;;5112433;28;20212;-52
2022/07/18 13:05:30;;;;;;;2.72;2.10;;;30.60;57.60;;;;;;5111639;28;20571;-52
2022/07/18 13:07:59;;;;;;;1.70;1.60;;;30.70;56.60;;;;;;5111016;28;20717;-52
2022/07/18 13:10:27;;;;;;;2.60;1.70;;;30.60;56.20;;;;;;5111991;28;20204;-52